createdAt,value
2023-02-08T00:00:58.203Z,100412.09
2023-02-08T00:03:25.745Z,100411.56
2023-02-08T00:05:53.132Z,100406.22
2023-02-08T00:08:20.431Z,100405.34
2023-02-08T00:10:47.800Z,100404.50
2023-02-08T00:13:15.165Z,100402.81
2023-02-08T00:15:46.307Z,100395.03
2023-02-08T00:18:13.877Z,100389.06
2023-02-08T00:20:42.745Z,100386.22
2023-02-08T00:23:10.658Z,100391.31
2023-02-08T00:25:38.063Z,100388.75
2023-02-08T00:28:09.172Z,100387.97
2023-02-08T00:30:36.961Z,100378.34
2023-02-08T00:33:04.428Z,100372.53
2023-02-08T00:35:32.638Z,100375.19
2023-02-08T00:38:00.506Z,100366.53
2023-02-08T00:40:28.135Z,100370.81
2023-02-08T00:42:55.588Z,100375.19
2023-02-08T00:45:23.632Z,100378.16
2023-02-08T00:47:50.983Z,100375.41
2023-02-08T00:50:18.409Z,100374.72
2023-02-08T00:52:45.756Z,100380.53
2023-02-08T00:55:13.210Z,100385.00
2023-02-08T00:57:40.559Z,100374.59
2023-02-08T01:00:09.133Z,100377.06
2023-02-08T01:02:39.323Z,100374.34
2023-02-08T01:05:07.048Z,100376.34
2023-02-08T01:07:35.984Z,100379.34
2023-02-08T01:10:04.069Z,100381.97
2023-02-08T01:12:31.498Z,100379.41
2023-02-08T01:14:59.870Z,100370.00
2023-02-08T01:17:27.312Z,100373.00
2023-02-08T01:19:54.665Z,100373.75
2023-02-08T01:22:22.054Z,100379.94
2023-02-08T01:24:49.442Z,100376.38
2023-02-08T01:27:16.789Z,100375.28
2023-02-08T01:29:44.141Z,100373.09
2023-02-08T01:32:11.510Z,100360.06
2023-02-08T01:34:38.912Z,100363.16
2023-02-08T01:37:06.264Z,100364.59
2023-02-08T01:39:34.036Z,100349.56
2023-02-08T01:42:01.436Z,100356.47
2023-02-08T01:45:17.497Z,100361.47
2023-02-08T01:47:47.037Z,100355.75
2023-02-08T01:50:15.047Z,100355.47
2023-02-08T01:52:42.950Z,100346.00
2023-02-08T01:55:23.525Z,100341.50
2023-02-08T01:57:54.838Z,100337.69
2023-02-08T02:00:23.484Z,100343.19
2023-02-08T02:02:56.159Z,100342.16
2023-02-08T02:05:26.484Z,100337.69
2023-02-08T02:07:54.570Z,100331.41
2023-02-08T02:10:29.320Z,100324.13
2023-02-08T02:12:58.602Z,100322.69
2023-02-08T02:15:25.949Z,100323.25
2023-02-08T02:17:53.357Z,100311.56
2023-02-08T02:20:23.725Z,100310.75
2023-02-08T02:23:15.363Z,100317.53
2023-02-08T02:26:03.171Z,100309.00
2023-02-08T02:29:10.226Z,100310.63
2023-02-08T02:31:59.020Z,100306.47
2023-02-08T02:34:35.981Z,100307.50
2023-02-08T02:37:31.097Z,100310.97
2023-02-08T02:39:58.377Z,100324.06
2023-02-08T02:43:18.451Z,100316.63
2023-02-08T02:46:07.146Z,100317.69
2023-02-08T02:49:27.927Z,100321.22
2023-02-08T02:52:27.863Z,100324.59
2023-02-08T02:54:57.771Z,100319.25
2023-02-08T02:57:34.613Z,100318.44
2023-02-08T03:00:08.790Z,100318.56
2023-02-08T03:02:36.301Z,100320.22
2023-02-08T03:05:03.938Z,100315.34
2023-02-08T03:07:56.166Z,100317.06
2023-02-08T03:10:42.995Z,100319.53
2023-02-08T03:13:33.013Z,100323.81
2023-02-08T03:16:21.080Z,100326.56
2023-02-08T03:19:05.849Z,100323.91
2023-02-08T03:21:55.270Z,100321.25
2023-02-08T03:24:44.453Z,100335.84
2023-02-08T03:27:21.225Z,100330.72
2023-02-08T03:29:57.752Z,100330.75
2023-02-08T03:32:29.060Z,100328.25
2023-02-08T03:35:07.687Z,100323.06
2023-02-08T03:37:55.789Z,100327.28
2023-02-08T03:40:35.594Z,100326.50
2023-02-08T03:43:12.009Z,100320.34
2023-02-08T03:46:06.705Z,100327.25
2023-02-08T03:48:35.384Z,100334.00
2023-02-08T03:51:03.849Z,100334.06
2023-02-08T03:53:38.154Z,100324.66
2023-02-08T03:56:13.756Z,100320.41
2023-02-08T03:58:47.107Z,100331.59
2023-02-08T04:01:20.860Z,100325.56
2023-02-08T04:03:50.147Z,100337.59
2023-02-08T04:06:17.938Z,100330.63
2023-02-08T04:08:45.335Z,100334.03
2023-02-08T04:11:12.643Z,100335.00
2023-02-08T04:13:39.964Z,100330.84
2023-02-08T04:16:07.549Z,100332.50
2023-02-08T04:18:34.882Z,100326.38
2023-02-08T04:21:02.203Z,100333.38
2023-02-08T04:23:29.553Z,100327.28
2023-02-08T04:25:56.889Z,100323.13
2023-02-08T04:28:24.306Z,100314.63
2023-02-08T04:30:51.768Z,100320.53
2023-02-08T04:33:19.139Z,100316.13
2023-02-08T04:35:46.479Z,100316.19
2023-02-08T04:38:13.803Z,100313.53
2023-02-08T04:40:41.428Z,100321.34
2023-02-08T04:43:09.016Z,100315.97
2023-02-08T04:45:36.476Z,100311.88
2023-02-08T04:48:04.305Z,100317.09
2023-02-08T04:50:31.704Z,100311.84
2023-02-08T04:52:59.114Z,100308.47
2023-02-08T04:55:26.519Z,100304.09
2023-02-08T04:57:53.915Z,100307.59
2023-02-08T05:00:21.276Z,100297.22
2023-02-08T05:02:48.601Z,100296.34
2023-02-08T05:05:16.049Z,100297.09
2023-02-08T05:07:43.421Z,100292.78
2023-02-08T05:10:10.841Z,100292.72
2023-02-08T05:12:38.232Z,100290.09
2023-02-08T05:15:05.789Z,100292.59
2023-02-08T05:17:33.216Z,100295.13
2023-02-08T05:20:00.768Z,100301.13
2023-02-08T05:22:28.129Z,100304.59
2023-02-08T05:24:55.462Z,100303.59
2023-02-08T05:27:23.089Z,100302.72
2023-02-08T05:29:50.467Z,100307.75
2023-02-08T05:32:17.888Z,100307.06
2023-02-08T05:34:45.337Z,100306.25
2023-02-08T05:37:14.035Z,100304.53
2023-02-08T05:39:41.439Z,100307.88
2023-02-08T05:42:08.818Z,100310.53
2023-02-08T05:44:36.163Z,100311.34
2023-02-08T05:47:04.041Z,100320.81
2023-02-08T05:49:31.432Z,100313.00
2023-02-08T05:51:58.854Z,100319.91
2023-02-08T05:54:26.310Z,100316.47
2023-02-08T05:56:53.699Z,100307.06
2023-02-08T05:59:21.072Z,100303.56
2023-02-08T06:01:49.419Z,100307.88
2023-02-08T06:04:16.864Z,100318.19
2023-02-08T06:06:44.265Z,100313.94
2023-02-08T06:09:11.718Z,100313.94
2023-02-08T06:11:39.071Z,100318.09
2023-02-08T06:14:06.417Z,100312.06
2023-02-08T06:16:33.827Z,100313.03
2023-02-08T06:19:01.317Z,100304.41
2023-02-08T06:21:28.727Z,100313.78
2023-02-08T06:23:56.415Z,100320.63
2023-02-08T06:26:23.878Z,100324.06
2023-02-08T06:28:51.245Z,100321.56
2023-02-08T06:31:18.625Z,100321.50
2023-02-08T06:33:45.952Z,100324.13
2023-02-08T06:36:13.334Z,100320.63
2023-02-08T06:38:40.680Z,100314.59
2023-02-08T06:41:08.094Z,100318.16
2023-02-08T06:43:35.411Z,100317.28
2023-02-08T06:46:04.980Z,100317.34
2023-02-08T06:48:32.559Z,100311.25
2023-02-08T06:50:59.909Z,100310.38
2023-02-08T06:53:27.492Z,100318.91
2023-02-08T06:55:54.886Z,100316.31
2023-02-08T06:58:22.338Z,100319.75
2023-02-08T07:00:49.719Z,100334.41
2023-02-08T07:03:19.761Z,100324.13
2023-02-08T07:06:02.550Z,100327.56
2023-02-08T07:08:32.206Z,100329.41
2023-02-08T07:10:59.540Z,100331.16
2023-02-08T07:13:26.940Z,100337.22
2023-02-08T07:15:54.283Z,100333.84
2023-02-08T07:18:21.604Z,100331.31
2023-02-08T07:20:49.510Z,100336.63
2023-02-08T07:23:16.828Z,100336.75
2023-02-08T07:25:44.246Z,100341.94
2023-02-08T07:28:11.669Z,100334.28
2023-02-08T07:30:39.365Z,100336.03
2023-02-08T07:33:06.936Z,100342.97
2023-02-08T07:35:34.369Z,100345.59
2023-02-08T07:38:01.702Z,100336.28
2023-02-08T07:40:28.983Z,100337.25
2023-02-08T07:42:56.287Z,100339.09
2023-02-08T07:45:34.848Z,100325.41
2023-02-08T07:48:02.149Z,100322.03
2023-02-08T07:50:29.545Z,100321.34
2023-02-08T07:52:56.934Z,100328.31
2023-02-08T07:55:24.304Z,100319.81
2023-02-08T07:57:51.683Z,100320.75
2023-02-08T08:00:19.406Z,100317.28
2023-02-08T08:02:46.792Z,100314.78
2023-02-08T08:05:14.155Z,100311.38
2023-02-08T08:07:41.533Z,100316.56
2023-02-08T08:10:09.095Z,100307.94
2023-02-08T08:12:36.473Z,100314.88
2023-02-08T08:15:04.173Z,100311.41
2023-02-08T08:17:31.506Z,100320.91
2023-02-08T08:19:58.909Z,100305.34
2023-02-08T08:22:26.259Z,100305.22
2023-02-08T08:24:54.526Z,100308.56
2023-02-08T08:27:21.890Z,100319.03
2023-02-08T08:29:49.250Z,100300.56
2023-02-08T08:32:16.559Z,100307.47
2023-02-08T08:34:43.834Z,100312.00
2023-02-08T08:37:11.210Z,100306.31
2023-02-08T08:39:38.584Z,100305.50
2023-02-08T08:42:06.040Z,100296.25
2023-02-08T08:44:33.657Z,100297.91
2023-02-08T08:47:01.675Z,100301.88
2023-02-08T08:49:29.886Z,100293.94
2023-02-08T08:51:57.909Z,100288.34
2023-02-08T08:54:25.278Z,100302.63
2023-02-08T08:56:52.725Z,100290.59
2023-02-08T08:59:20.151Z,100279.38
2023-02-08T09:01:47.516Z,100281.84
2023-02-08T09:04:15.355Z,100288.63
2023-02-08T09:06:42.683Z,100287.06
2023-02-08T09:09:10.048Z,100282.31
2023-02-08T09:11:37.392Z,100286.28
2023-02-08T09:14:05.213Z,100279.66
2023-02-08T09:16:32.907Z,100274.53
2023-02-08T09:19:06.990Z,100283.31
2023-02-08T09:21:34.732Z,100278.53
2023-02-08T09:24:02.591Z,100281.22
2023-02-08T09:26:30.210Z,100284.31
2023-02-08T09:28:57.588Z,100269.50
2023-02-08T09:31:29.176Z,100283.06
2023-02-08T09:33:58.780Z,100272.53
2023-02-08T09:36:28.181Z,100275.38
2023-02-08T09:39:00.265Z,100271.94
2023-02-08T09:41:38.463Z,100263.44
2023-02-08T09:44:08.533Z,100269.03
2023-02-08T09:46:39.419Z,100270.28
2023-02-08T09:49:14.814Z,100263.13
2023-02-08T09:51:49.949Z,100266.22
2023-02-08T09:54:21.425Z,100265.53
2023-02-08T09:56:50.541Z,100267.28
2023-02-08T09:59:26.827Z,100284.03
2023-02-08T10:02:05.977Z,100264.75
2023-02-08T10:04:57.423Z,100250.19
2023-02-08T10:07:26.732Z,100259.66
2023-02-08T10:09:56.812Z,100265.16
2023-02-08T10:12:54.756Z,100265.31
2023-02-08T10:15:43.253Z,100253.84
2023-02-08T10:18:18.960Z,100246.59
2023-02-08T10:21:04.088Z,100247.56
2023-02-08T10:23:55.106Z,100245.75
2023-02-08T10:26:40.768Z,100247.16
2023-02-08T10:29:45.589Z,100226.72
2023-02-08T10:32:35.326Z,100230.75
2023-02-08T10:35:03.903Z,100234.66
2023-02-08T10:37:36.705Z,100238.19
2023-02-08T10:40:24.600Z,100231.59
2023-02-08T10:43:09.751Z,100236.03
2023-02-08T10:45:49.266Z,100233.28
2023-02-08T10:48:32.124Z,100220.16
2023-02-08T10:50:59.494Z,100214.66
2023-02-08T10:53:26.848Z,100219.47
2023-02-08T10:55:54.261Z,100215.06
2023-02-08T10:58:24.264Z,100212.72
2023-02-08T11:00:52.196Z,100213.50
2023-02-08T11:03:25.394Z,100199.91
2023-02-08T11:05:53.403Z,100199.88
2023-02-08T11:08:25.595Z,100202.09
2023-02-08T11:11:07.188Z,100205.00
2023-02-08T11:13:40.471Z,100196.06
2023-02-08T11:16:12.654Z,100185.97
2023-02-08T11:18:47.231Z,100185.06
2023-02-08T11:21:35.816Z,100176.03
2023-02-08T11:24:23.040Z,100166.00
2023-02-08T11:26:50.524Z,100171.66
2023-02-08T11:29:29.493Z,100156.63
2023-02-08T11:31:57.424Z,100156.16
2023-02-08T11:34:32.636Z,100150.75
2023-02-08T11:37:02.808Z,100150.34
2023-02-08T11:39:43.098Z,100149.84
2023-02-08T11:42:38.759Z,100149.91
2023-02-08T11:45:06.774Z,100142.72
2023-02-08T11:47:35.981Z,100132.16
2023-02-08T11:50:07.403Z,100141.06
2023-02-08T11:52:40.677Z,100142.25
2023-02-08T11:55:19.869Z,100134.19
2023-02-08T11:58:05.050Z,100135.31
2023-02-08T12:00:37.571Z,100134.00
2023-02-08T12:03:15.089Z,100110.66
2023-02-08T12:05:57.740Z,100130.91
2023-02-08T12:08:42.880Z,100115.22
2023-02-08T12:11:39.072Z,100105.91
2023-02-08T12:14:09.475Z,100107.63
2023-02-08T12:17:18.186Z,100101.09
2023-02-08T12:19:54.389Z,100115.00
2023-02-08T12:22:26.219Z,100099.16
2023-02-08T12:25:29.969Z,100108.09
2023-02-08T12:28:22.655Z,100100.69
2023-02-08T12:31:04.862Z,100102.81
2023-02-08T12:33:48.489Z,100101.25
2023-02-08T12:36:24.087Z,100099.72
2023-02-08T12:39:19.591Z,100100.44
2023-02-08T12:42:06.537Z,100087.44
2023-02-08T12:44:51.279Z,100086.78
2023-02-08T12:47:37.351Z,100074.25
2023-02-08T12:50:17.078Z,100059.25
2023-02-08T12:52:55.551Z,100065.44
2023-02-08T12:55:30.281Z,100046.19
2023-02-08T12:58:21.587Z,100056.34
2023-02-08T13:00:51.043Z,100045.28
2023-02-08T13:03:42.479Z,100043.56
2023-02-08T13:06:24.977Z,100034.25
2023-02-08T13:09:04.035Z,100052.78
2023-02-08T13:11:41.579Z,100045.47
2023-02-08T13:14:26.875Z,100042.41
2023-02-08T13:16:57.736Z,100050.53
2023-02-08T13:19:30.868Z,100044.47
2023-02-08T13:21:59.488Z,100040.63
2023-02-08T13:24:37.955Z,100037.22
2023-02-08T13:27:08.637Z,100033.38
2023-02-08T13:29:37.315Z,100028.97
2023-02-08T13:32:11.705Z,100020.72
2023-02-08T13:34:51.152Z,100025.91
2023-02-08T13:37:26.001Z,100019.66
2023-02-08T13:40:21.433Z,100021.03
2023-02-08T13:43:10.483Z,100026.03
2023-02-08T13:45:43.117Z,100035.88
2023-02-08T13:48:16.022Z,100037.97
2023-02-08T13:50:57.093Z,100037.53
2023-02-08T13:53:40.000Z,100028.03
2023-02-08T13:56:14.073Z,100030.16
2023-02-08T13:58:50.711Z,100042.91
2023-02-08T14:01:22.262Z,100029.09
2023-02-08T14:04:16.665Z,100043.22
2023-02-08T14:06:51.261Z,100042.00
2023-02-08T14:09:27.802Z,100027.00
2023-02-08T14:12:01.025Z,100027.72
2023-02-08T14:14:34.878Z,100028.53
2023-02-08T14:17:05.359Z,100027.75
2023-02-08T14:19:38.168Z,100035.00
2023-02-08T14:22:11.542Z,100039.84
2023-02-08T14:24:43.767Z,100046.75
2023-02-08T14:27:28.508Z,100056.97
2023-02-08T14:30:02.119Z,100054.56
2023-02-08T14:32:31.780Z,100045.59
2023-02-08T14:35:21.537Z,100038.66
2023-02-08T14:37:53.892Z,100044.00
2023-02-08T14:40:25.185Z,100036.56
2023-02-08T14:42:58.585Z,100031.16
2023-02-08T14:45:38.421Z,100030.34
2023-02-08T14:48:14.380Z,100027.75
2023-02-08T14:51:06.079Z,100022.78
2023-02-08T14:53:43.800Z,100032.22
2023-02-08T14:56:19.232Z,100026.19
2023-02-08T14:59:00.066Z,100022.75
2023-02-08T15:01:48.712Z,100023.56
2023-02-08T15:04:18.352Z,100020.28
2023-02-08T15:07:07.273Z,100028.94
2023-02-08T15:09:39.132Z,100036.06
2023-02-08T15:12:17.725Z,100028.44
2023-02-08T15:14:45.346Z,100031.16
2023-02-08T15:17:39.819Z,100028.84
2023-02-08T15:20:22.684Z,100035.91
2023-02-08T15:22:56.706Z,100029.78
2023-02-08T15:25:29.943Z,100034.91
2023-02-08T15:28:03.123Z,100037.69
2023-02-08T15:30:36.205Z,100024.78
2023-02-08T15:33:14.550Z,100023.97
2023-02-08T15:35:43.905Z,100015.38
2023-02-08T15:38:30.169Z,100023.19
2023-02-08T15:41:09.641Z,100029.28
2023-02-08T15:43:38.480Z,100028.47
2023-02-08T15:46:16.199Z,100031.19
2023-02-08T15:48:45.923Z,100022.53
2023-02-08T15:51:14.693Z,100022.75
2023-02-08T15:53:44.668Z,100027.13
2023-02-08T15:56:24.009Z,100021.22
2023-02-08T15:59:02.411Z,100027.44
2023-02-08T16:01:31.382Z,100023.16
2023-02-08T16:04:00.631Z,100036.41
2023-02-08T16:06:29.660Z,100030.41
2023-02-08T16:08:59.184Z,100030.56
2023-02-08T16:11:31.466Z,100034.25
2023-02-08T16:14:00.301Z,100034.34
2023-02-08T16:16:27.621Z,100028.41
2023-02-08T16:19:04.456Z,100023.25
2023-02-08T16:21:38.875Z,100026.84
2023-02-08T16:24:27.314Z,100031.31
2023-02-08T16:27:28.458Z,100028.91
2023-02-08T16:29:56.017Z,100032.59
2023-02-08T16:32:36.037Z,100033.50
2023-02-08T16:35:24.696Z,100035.31
2023-02-08T16:38:02.885Z,100030.16
2023-02-08T16:40:43.319Z,100035.53
2023-02-08T16:43:21.203Z,100045.03
2023-02-08T16:46:11.731Z,100041.63
2023-02-08T16:48:43.802Z,100041.63
2023-02-08T16:51:28.905Z,100046.78
2023-02-08T16:54:01.309Z,100051.25
2023-02-08T16:56:28.924Z,100045.53
2023-02-08T16:58:56.336Z,100057.72
2023-02-08T17:01:28.402Z,100056.13
2023-02-08T17:03:56.021Z,100053.41
2023-02-08T17:06:32.014Z,100051.72
2023-02-08T17:09:01.012Z,100049.91
2023-02-08T17:11:28.894Z,100057.75
2023-02-08T17:13:58.289Z,100055.13
2023-02-08T17:16:28.118Z,100061.34
2023-02-08T17:18:56.311Z,100058.81
2023-02-08T17:21:23.886Z,100065.88
2023-02-08T17:23:51.342Z,100057.28
2023-02-08T17:26:22.416Z,100063.41
2023-02-08T17:28:50.485Z,100065.09
2023-02-08T17:31:18.108Z,100068.59
2023-02-08T17:33:45.804Z,100066.19
2023-02-08T17:36:15.251Z,100067.16
2023-02-08T17:38:44.390Z,100068.84
2023-02-08T17:41:17.082Z,100066.22
2023-02-08T17:43:44.690Z,100073.09
2023-02-08T17:46:16.347Z,100075.88
2023-02-08T17:48:44.087Z,100065.50
2023-02-08T17:51:16.630Z,100061.09
2023-02-08T17:53:44.548Z,100060.22
2023-02-08T17:56:14.092Z,100068.03
2023-02-08T17:58:42.129Z,100072.44
2023-02-08T18:01:14.028Z,100084.63
2023-02-08T18:03:41.430Z,100082.97
2023-02-08T18:06:09.012Z,100081.25
2023-02-08T18:08:37.515Z,100081.34
2023-02-08T18:11:15.918Z,100086.63
2023-02-08T18:13:43.401Z,100090.13
2023-02-08T18:16:16.509Z,100089.25
2023-02-08T18:18:44.214Z,100085.81
2023-02-08T18:21:15.367Z,100084.06
2023-02-08T18:23:43.064Z,100089.19
2023-02-08T18:26:13.305Z,100074.56
2023-02-08T18:28:41.161Z,100078.00
2023-02-08T18:31:11.090Z,100080.56
2023-02-08T18:33:38.860Z,100084.03
2023-02-08T18:36:06.767Z,100084.88
2023-02-08T18:38:34.481Z,100076.13
2023-02-08T18:41:01.864Z,100086.47
2023-02-08T18:43:29.254Z,100082.09
2023-02-08T18:46:05.101Z,100076.06
2023-02-08T18:48:33.053Z,100078.69
2023-02-08T18:51:02.893Z,100077.78
2023-02-08T18:53:33.019Z,100081.25
2023-02-08T18:56:02.090Z,100077.84
2023-02-08T18:58:29.619Z,100077.03
2023-02-08T19:01:12.114Z,100081.38
2023-02-08T19:03:40.103Z,100076.22
2023-02-08T19:06:09.660Z,100072.72
2023-02-08T19:08:38.098Z,100075.34
2023-02-08T19:11:06.481Z,100074.44
2023-02-08T19:13:35.515Z,100073.56
2023-02-08T19:16:02.972Z,100075.31
2023-02-08T19:18:30.342Z,100058.88
2023-02-08T19:21:07.128Z,100061.50
2023-02-08T19:23:34.615Z,100063.25
2023-02-08T19:26:03.648Z,100065.81
2023-02-08T19:28:33.674Z,100062.41
2023-02-08T19:31:12.206Z,100061.56
2023-02-08T19:33:41.570Z,100060.66
2023-02-08T19:36:09.108Z,100059.84
2023-02-08T19:38:37.011Z,100061.56
2023-02-08T19:41:05.654Z,100062.44
2023-02-08T19:43:33.530Z,100063.31
2023-02-08T19:46:01.132Z,100052.06
2023-02-08T19:48:28.577Z,100059.84
2023-02-08T19:51:00.614Z,100053.78
2023-02-08T19:53:28.697Z,100052.94
2023-02-08T19:55:57.644Z,100054.69
2023-02-08T19:58:25.369Z,100057.31
2023-02-08T20:00:53.605Z,100059.88
2023-02-08T20:03:22.392Z,100062.50
2023-02-08T20:05:50.899Z,100052.09
2023-02-08T20:08:18.669Z,100046.91
2023-02-08T20:10:48.004Z,100045.16
2023-02-08T20:13:15.392Z,100044.34
2023-02-08T20:15:44.654Z,100055.56
2023-02-08T20:18:13.485Z,100051.28
2023-02-08T20:20:41.251Z,100046.09
2023-02-08T20:23:21.796Z,100045.25
2023-02-08T20:25:50.059Z,100048.69
2023-02-08T20:28:17.437Z,100047.84
2023-02-08T20:30:44.937Z,100047.00
2023-02-08T20:33:13.717Z,100047.91
2023-02-08T20:35:43.115Z,100044.41
2023-02-08T20:38:10.694Z,100035.78
2023-02-08T20:40:37.998Z,100035.78
2023-02-08T20:43:05.383Z,100040.13
2023-02-08T20:45:32.759Z,100028.03
2023-02-08T20:48:00.129Z,100038.38
2023-02-08T20:50:27.940Z,100033.22
2023-02-08T20:52:55.305Z,100032.34
2023-02-08T20:55:22.720Z,100039.25
2023-02-08T20:57:50.122Z,100034.94
2023-02-08T21:00:17.775Z,100042.69
2023-02-08T21:02:45.220Z,100040.09
2023-02-08T21:05:12.620Z,100033.19
2023-02-08T21:07:40.371Z,100039.22
2023-02-08T21:10:08.333Z,100033.19
2023-02-08T21:12:36.393Z,100034.06
2023-02-08T21:15:03.970Z,100032.34
2023-02-08T21:17:31.411Z,100031.44
2023-02-08T21:19:58.905Z,100033.16
2023-02-08T21:22:26.515Z,100029.69
2023-02-08T21:24:53.985Z,100030.53
2023-02-08T21:27:21.396Z,100033.09
2023-02-08T21:29:52.009Z,100041.63
2023-02-08T21:32:19.490Z,100038.94
2023-02-08T21:34:46.882Z,100030.19
2023-02-08T21:37:14.479Z,100031.06
2023-02-08T21:39:41.859Z,100032.78
2023-02-08T21:42:09.205Z,100026.00
2023-02-08T21:44:36.580Z,100021.84
2023-02-08T21:47:03.961Z,100023.63
2023-02-08T21:49:49.821Z,100020.16
2023-02-08T21:52:35.954Z,100027.13
2023-02-08T21:55:03.506Z,100028.03
2023-02-08T21:57:37.815Z,100024.56
2023-02-08T22:00:08.234Z,100020.25
2023-02-08T22:02:40.055Z,100023.72
2023-02-08T22:05:07.553Z,100027.16
2023-02-08T22:07:49.425Z,100022.84
2023-02-08T22:10:18.769Z,100023.72
2023-02-08T22:12:47.244Z,100025.41
2023-02-08T22:15:17.348Z,100017.66
2023-02-08T22:17:45.500Z,100018.50
2023-02-08T22:20:13.851Z,100015.03
2023-02-08T22:22:41.223Z,100021.06
2023-02-08T22:25:08.712Z,100011.59
2023-02-08T22:27:36.101Z,100005.53
2023-02-08T22:30:03.791Z,100002.06
2023-02-08T22:32:31.187Z,100010.69
2023-02-08T22:34:58.789Z,100010.66
2023-02-08T22:37:26.247Z,100010.41
2023-02-08T22:39:53.663Z,100017.13
2023-02-08T22:42:21.051Z,100010.16
2023-02-08T22:44:48.481Z,100019.59
2023-02-08T22:47:15.943Z,100010.84
2023-02-08T22:49:43.283Z,100013.31
2023-02-08T22:52:11.085Z,100001.97
2023-02-08T22:54:38.863Z,100006.50
2023-02-08T22:57:06.421Z,99998.06
2023-02-08T22:59:34.599Z,99993.94
2023-02-08T23:02:02.073Z,99992.94
2023-02-08T23:04:29.998Z,99993.81
2023-02-08T23:06:58.560Z,99994.59
2023-02-08T23:09:26.006Z,99989.16
2023-02-08T23:11:53.370Z,99982.13
2023-02-08T23:14:20.717Z,99984.06
2023-02-08T23:16:48.031Z,99976.63
2023-02-08T23:19:17.292Z,99975.09
2023-02-08T23:21:44.791Z,99979.47
2023-02-08T23:24:12.158Z,99980.34
2023-02-08T23:26:40.075Z,99978.66
2023-02-08T23:29:07.431Z,99979.53
2023-02-08T23:31:34.905Z,99981.19
2023-02-08T23:34:02.349Z,99984.59
2023-02-08T23:36:29.742Z,99987.63
2023-02-08T23:38:57.065Z,99980.78
2023-02-08T23:41:24.913Z,99994.25
2023-02-08T23:43:53.218Z,99985.34
2023-02-08T23:46:23.409Z,99982.41
2023-02-08T23:48:51.000Z,99974.63
2023-02-08T23:51:20.471Z,99980.19
2023-02-08T23:53:48.184Z,99978.47
2023-02-08T23:56:22.269Z,99969.63
2023-02-08T23:58:52.007Z,99971.16
